Hamilton Island, Australia

8:18 AM AEST on October 20, 2017 (GMT +1000)
Hamilton Island

Weather History for YBHM - April, 2012

Change the Weather History Date:

Thursday, April 5, 2012

  Actual Average Record
Temperature  
Mean Temperature 78 °F -  
Max Temperature 82 °F - - ()
Min Temperature 75 °F - - ()
Cooling Degree Days 14    
Growing Degree Days 28 (Base 50)    
Moisture  
Dew Point 63 °F    
Average Humidity 57    
Maximum Humidity 74    
Minimum Humidity 35    
Precipitation  
Precipitation 0.00 in - - ()
Sea Level Pressure  
Sea Level Pressure 29.98 in    
Wind  
Wind Speed 15 mph ()    
Max Wind Speed 23 mph    
Max Gust Speed -    
T = Trace of Precipitation, MM = Missing Value Source: Averaged Metar Reports

Daily Weather History Graph

Daily Weather History Graph

Search for Another Location

Airport or City:

Trip Planner

Search our weather history database for the weather conditions in past years. The results will help you decide how hot, cold, wet, or windy it might be!

Date:

Astronomy

Apr. 05, 2012 Rise Set
Actual Time 6:12 AM AEST 6:01 PM AEST
Civil Twilight 5:50 AM AEST 6:23 PM AEST
Nautical Twilight 5:24 AM AEST 6:48 PM AEST
Astronomical Twilight 4:59 AM AEST 7:14 PM AEST
Moon 4:38 PM AEST (4/5) 4:13 AM AEST (4/5)
Length of Visible Light 12h 32m
Length of Day
11h 48m
Waxing Gibbous, 96% of the Moon is Illuminated
Apr 5
Waxing Gibbous
Apr 7
Full
Apr 13
Last Quarter
Apr 21
New
Apr 29
First Quarter

Hourly Weather History & Observations

Time (AEST) Temp. Heat Index Dew Point Humidity Pressure Visibility Wind Dir Wind Speed Gust Speed Precip Events Conditions
12:00 AM 77 °F - 65 °F 58% 29.99 in - SE 12.7 mph - -  
12:00 AM 77.0 °F - 64.4 °F 65% 29.98 in - SE 12.7 mph - N/A   Unknown
12:30 AM 77.0 °F - 64.4 °F 65% 29.98 in - ESE 15.0 mph - N/A   Unknown
1:00 AM 77.0 °F - 64.4 °F 65% 29.98 in - ESE 13.8 mph - N/A   Unknown
1:30 AM 77.0 °F - 62.6 °F 61% 29.98 in - ESE 13.8 mph - N/A   Unknown
2:00 AM 77.0 °F - 64.4 °F 65% 29.95 in - ESE 17.3 mph - N/A   Unknown
2:30 AM 77.0 °F - 64.4 °F 65% 29.95 in - ESE 15.0 mph - N/A   Unknown
3:00 AM 77 °F - 66 °F 61% 29.96 in - ESE 13.8 mph - -  
3:00 AM 77.0 °F - 66.2 °F 69% 29.95 in - ESE 13.8 mph - N/A   Unknown
3:30 AM 77.0 °F - 62.6 °F 61% 29.95 in - SE 16.1 mph - N/A   Unknown
4:00 AM 77.0 °F - 60.8 °F 57% 29.95 in - SE 15.0 mph - N/A   Unknown
4:30 AM 77.0 °F - 59.0 °F 54% 29.95 in - SE 16.1 mph - N/A   Unknown
5:00 AM 77.0 °F - 59.0 °F 54% 29.95 in - SE 17.3 mph - N/A   Unknown
5:30 AM 77.0 °F - 59.0 °F 54% 29.98 in - SE 17.3 mph - N/A   Unknown
6:00 AM 77 °F - 61 °F 48% 29.98 in - SE 17.3 mph - -  
6:00 AM 77.0 °F - 60.8 °F 57% 29.98 in - SE 17.3 mph - N/A   Unknown
6:30 AM 77.0 °F - 60.8 °F 57% 29.98 in - SE 16.1 mph - N/A   Unknown
7:00 AM 78.8 °F - 60.8 °F 54% 29.98 in - SE 18.4 mph - N/A   Unknown
7:30 AM 78.8 °F - 60.8 °F 54% 29.98 in - SE 16.1 mph - N/A   Unknown
8:00 AM 80.6 °F 81.5 °F 60.8 °F 51% 30.01 in - ESE 17.3 mph - N/A   Unknown
8:30 AM 80.6 °F 81.5 °F 60.8 °F 51% 30.01 in - ESE 17.3 mph - N/A   Unknown
9:00 AM 81 °F - 59 °F 36% 30.02 in - ESE 18.4 mph - -  
9:00 AM 80.6 °F 81.1 °F 59.0 °F 48% 30.01 in - ESE 18.4 mph - N/A   Unknown
9:30 AM 82.4 °F 83.4 °F 62.6 °F 51% 30.01 in - SE 17.3 mph - N/A   Unknown
10:00 AM 80.6 °F 80.8 °F 57.2 °F 45% 30.01 in - ESE 19.6 mph - N/A   Unknown
10:30 AM 80.6 °F 81.1 °F 59.0 °F 48% 30.01 in - ESE 19.6 mph - N/A   Unknown
11:00 AM 80.6 °F 80.8 °F 57.2 °F 45% 30.01 in - SE 19.6 mph - N/A   Unknown
11:30 AM 82.4 °F 83.9 °F 64.4 °F 54% 30.01 in - SE 18.4 mph - N/A   Unknown
12:00 PM 82 °F - 65 °F 46% 29.99 in - SE 18.4 mph - -  
12:00 PM 82.4 °F 83.9 °F 64.4 °F 54% 29.98 in - SE 18.4 mph - N/A   Unknown
12:30 PM 80.6 °F 81.8 °F 62.6 °F 54% 29.98 in - SE 20.7 mph - N/A   Unknown
1:00 PM 82.4 °F 84.6 °F 66.2 °F 58% 29.95 in - SE 18.4 mph - N/A   Unknown
1:30 PM 80.6 °F 81.1 °F 59.0 °F 48% 29.95 in - SE 19.6 mph - N/A   Unknown
2:00 PM 80.6 °F 81.5 °F 60.8 °F 51% 29.95 in - SE 20.7 mph - N/A   Unknown
2:30 PM 80.6 °F 81.5 °F 60.8 °F 51% 29.92 in - SE 19.6 mph - N/A   Unknown
3:00 PM 80 °F - 57 °F 35% 29.93 in - SE 18.4 mph - -  
3:00 PM 80.6 °F 80.8 °F 57.2 °F 45% 29.92 in - SE 18.4 mph - N/A   Unknown
3:30 PM 78.8 °F - 60.8 °F 54% 29.92 in - SE 18.4 mph - N/A   Unknown
4:00 PM 78.8 °F - 62.6 °F 57% 29.92 in - SE 20.7 mph - N/A   Unknown
4:30 PM 78.8 °F - 59.0 °F 51% 29.92 in - SE 19.6 mph - N/A   Unknown
5:00 PM 77.0 °F - 60.8 °F 57% 29.95 in - SE 21.9 mph - N/A   Unknown
5:30 PM 77.0 °F - 60.8 °F 57% 29.95 in - SE 18.4 mph - N/A   Unknown
6:00 PM 77 °F - 63 °F 53% 29.96 in - SE 17.3 mph - -  
6:00 PM 77.0 °F - 62.6 °F 61% 29.95 in - SE 17.3 mph - N/A   Unknown
6:30 PM 77.0 °F - 62.6 °F 61% 29.98 in - SE 16.1 mph - N/A   Unknown
7:00 PM 77.0 °F - 62.6 °F 61% 29.98 in - SE 17.3 mph - N/A   Unknown
7:30 PM 77.0 °F - 66.2 °F 69% 29.98 in - SE 18.4 mph - N/A   Unknown
8:00 PM 77.0 °F - 68.0 °F 74% 29.98 in - ESE 18.4 mph - N/A   Unknown
8:30 PM 77.0 °F - 68.0 °F 74% 30.01 in - SE 21.9 mph - N/A   Unknown
9:00 PM 78 °F - 68 °F 64% 30.01 in - ESE 23.0 mph - -  
9:00 PM 77.0 °F - 68.0 °F 74% 30.01 in - ESE 23.0 mph - N/A   Unknown
9:30 PM 77.0 °F - 68.0 °F 74% 30.01 in - SE 18.4 mph - N/A   Unknown
10:00 PM 77.0 °F - 68.0 °F 74% 30.01 in - ESE 20.7 mph - N/A   Unknown
10:30 PM 77.0 °F - 66.2 °F 69% 30.01 in - SE 19.6 mph - N/A   Unknown
11:00 PM 77.0 °F - 66.2 °F 69% 30.01 in - SE 19.6 mph - N/A   Unknown
11:30 PM 77.0 °F - 66.2 °F 69% 30.01 in - ESE 18.4 mph - N/A   Unknown